Time;durP1;ratioP1;P1;durP2;ratioP2;P2;SDS_P1;SDS_P2;PMS_P1;PMS_P2;Temp;Humidity;BMP_temperature;BMP_pressure;BME280_temperature;BME280_humidity;BME280_pressure;Samples;Min_cycle;Max_cycle;Signal;HPM_P1;HPM_P2
2022/10/05 00:00:46;;;;;;;;;;;8.20;99.90;;;;;;5064102;28;19921;-70
2022/10/05 00:03:12;;;;;;;;;;;8.20;99.90;;;;;;5068610;28;19927;-69
2022/10/05 00:05:39;;;;;;;;;;;8.20;99.90;;;;;;5063660;28;20272;-70
2022/10/05 00:08:13;;;;;;;;;;;8.10;99.90;;;;;;5063855;28;20222;-69
2022/10/05 00:10:41;;;;;;;;;;;8.10;99.90;;;;;;5064185;28;20231;-69
2022/10/05 00:13:11;;;;;;;;;;;8.00;99.90;;;;;;5064194;28;19967;-70
2022/10/05 00:15:38;;;;;;;;;;;8.00;99.90;;;;;;5063795;28;19963;-69
2022/10/05 00:18:10;;;;;;;;;;;8.00;99.90;;;;;;5064092;28;19984;-72
2022/10/05 00:20:36;;;;;;;;;;;8.00;99.90;;;;;;5063876;28;20133;-70
2022/10/05 00:23:04;;;;;;;;;;;8.00;99.90;;;;;;5063613;28;19920;-71
2022/10/05 00:25:32;;;;;;;;;;;8.00;99.90;;;;;;5063747;28;20112;-69
2022/10/05 00:28:00;;;;;;;;;;;7.90;99.90;;;;;;5063867;28;19959;-72
2022/10/05 00:30:29;;;;;;;;;;;8.00;99.90;;;;;;5063885;28;20000;-70
2022/10/05 00:32:56;;;;;;;;;;;8.00;99.90;;;;;;5063301;28;19920;-70
2022/10/05 00:35:22;;;;;;;;;;;8.00;99.90;;;;;;5063147;28;19921;-69
2022/10/05 00:37:52;;;;;;;;;;;8.00;99.90;;;;;;5063880;28;19996;-72
2022/10/05 00:40:26;;;;;;;;;;;8.00;99.90;;;;;;5063633;28;19966;-69
2022/10/05 00:43:01;;;;;;;;;;;8.00;99.90;;;;;;5063542;28;19920;-69
2022/10/05 00:45:29;;;;;;;;;;;8.00;99.90;;;;;;5062929;28;19927;-71
2022/10/05 00:48:01;;;;;;;;;;;8.00;99.90;;;;;;5063618;28;19927;-70
2022/10/05 00:50:43;;;;;;;;;;;7.90;99.90;;;;;;5063582;28;19943;-72
2022/10/05 00:53:16;;;;;;;;;;;7.90;99.90;;;;;;5063067;28;19920;-70
2022/10/05 00:55:50;;;;;;;;;;;7.90;99.90;;;;;;5062821;28;19921;-70
2022/10/05 00:58:22;;;;;;;;;;;7.90;99.90;;;;;;5063804;28;19920;-70
2022/10/05 01:00:54;;;;;;;;;;;7.90;99.90;;;;;;5063512;28;19927;-70
2022/10/05 01:03:25;;;;;;;;;;;7.80;99.90;;;;;;5057240;28;19920;-70
2022/10/05 01:05:58;;;;;;;;;;;7.80;99.90;;;;;;5054684;28;19927;-70
2022/10/05 01:08:29;;;;;;;;;;;7.80;99.90;;;;;;5063054;28;20119;-70
2022/10/05 01:11:01;;;;;;;;;;;7.70;99.90;;;;;;5063510;28;19927;-71
2022/10/05 01:13:31;;;;;;;;;;;7.60;99.90;;;;;;5062775;28;19921;-69
2022/10/05 01:16:03;;;;;;;;;;;7.60;99.90;;;;;;5062417;28;19920;-69
2022/10/05 01:18:37;;;;;;;;;;;7.60;99.90;;;;;;5063085;28;19958;-70
2022/10/05 01:21:06;;;;;;;;;;;7.60;99.90;;;;;;5062959;28;20282;-71
2022/10/05 01:23:54;;;;;;;;;;;7.60;99.90;;;;;;5062564;28;20204;-70
2022/10/05 01:26:34;;;;;;;;;;;7.60;99.90;;;;;;5062987;28;19921;-71
2022/10/05 01:29:04;;;;;;;;;;;7.50;99.90;;;;;;5062869;28;20055;-71
2022/10/05 01:31:36;;;;;;;;;;;7.60;99.90;;;;;;5062959;28;19928;-70
2022/10/05 01:34:05;;;;;;;;;;;7.50;99.90;;;;;;5068927;28;19929;-70
2022/10/05 01:36:34;;;;;;;;;;;7.50;99.90;;;;;;5069206;28;19921;-69
2022/10/05 01:39:05;;;;;;;;;;;7.60;99.90;;;;;;5069614;28;19927;-71
2022/10/05 01:41:33;;;;;;;;;;;7.60;99.90;;;;;;5078007;28;19921;-70
2022/10/05 01:44:03;;;;;;;;;;;7.50;99.90;;;;;;5069278;28;19978;-70
2022/10/05 01:46:35;;;;;;;;;;;7.50;99.90;;;;;;5069609;28;19984;-70
2022/10/05 01:49:12;;;;;;;;;;;7.50;99.90;;;;;;5068359;28;19927;-69
2022/10/05 01:51:43;;;;;;;;;;;7.50;99.90;;;;;;5068893;28;19921;-72
2022/10/05 01:54:14;;;;;;;;;;;7.50;99.90;;;;;;5068843;28;19952;-70
2022/10/05 01:56:44;;;;;;;;;;;7.50;99.90;;;;;;5069472;28;19943;-69
2022/10/05 01:59:17;;;;;;;;;;;7.50;99.90;;;;;;5069551;28;19929;-70
2022/10/05 02:01:49;;;;;;;;;;;7.50;99.90;;;;;;5069378;28;20123;-70
2022/10/05 02:04:20;;;;;;;;;;;7.50;99.90;;;;;;5068678;28;19927;-70
2022/10/05 02:06:49;;;;;;;;;;;7.50;99.90;;;;;;5069568;28;19979;-70
2022/10/05 02:09:18;;;;;;;;;;;7.50;99.90;;;;;;5069437;28;19921;-70
2022/10/05 02:11:48;;;;;;;;;;;7.50;99.90;;;;;;5069353;28;19924;-69
2022/10/05 02:14:17;;;;;;;;;;;7.50;99.90;;;;;;5068727;28;20235;-69
2022/10/05 02:16:45;;;;;;;;;;;7.50;99.90;;;;;;5069027;28;19921;-71
2022/10/05 02:19:17;;;;;;;;;;;7.40;99.90;;;;;;5069281;28;19991;-69
2022/10/05 02:21:44;;;;;;;;;;;7.40;99.90;;;;;;5068923;28;19929;-69
2022/10/05 02:24:13;;;;;;;;;;;7.40;99.90;;;;;;5069099;28;19927;-69
2022/10/05 02:26:40;;;;;;;;;;;7.40;99.90;;;;;;5069343;28;19927;-71
2022/10/05 02:29:08;;;;;;;;;;;7.40;99.90;;;;;;5069323;28;19921;-70
2022/10/05 02:31:37;;;;;;;;;;;7.40;99.90;;;;;;5068855;28;19929;-71
2022/10/05 02:34:22;;;;;;;;;;;7.40;99.90;;;;;;5068896;28;19976;-69
2022/10/05 02:36:51;;;;;;;;;;;7.40;99.90;;;;;;5068770;28;20262;-70
2022/10/05 02:39:23;;;;;;;;;;;7.40;99.90;;;;;;5068397;28;20882;-69
2022/10/05 02:41:53;;;;;;;;;;;7.40;99.90;;;;;;5068643;28;19924;-70
2022/10/05 02:44:24;;;;;;;;;;;7.30;99.90;;;;;;5065709;28;19928;-70
2022/10/05 02:46:55;;;;;;;;;;;7.20;99.90;;;;;;5065677;28;19921;-73
2022/10/05 02:49:26;;;;;;;;;;;7.20;99.90;;;;;;5071080;28;19920;-69
2022/10/05 02:51:57;;;;;;;;;;;7.10;99.90;;;;;;5085736;28;19926;-70
2022/10/05 02:54:30;;;;;;;;;;;7.10;99.90;;;;;;5065435;28;19944;-70
2022/10/05 02:56:59;;;;;;;;;;;7.10;99.90;;;;;;5065577;28;20172;-70
2022/10/05 02:59:28;;;;;;;;;;;7.00;99.90;;;;;;5065631;28;19920;-69
2022/10/05 03:01:58;;;;;;;;;;;7.00;99.90;;;;;;5065188;28;19921;-70
2022/10/05 03:04:33;;;;;;;;;;;7.00;99.90;;;;;;5065060;28;20226;-70
2022/10/05 03:07:04;;;;;;;;;;;7.00;99.90;;;;;;5045509;28;19976;-70
2022/10/05 03:09:35;;;;;;;;;;;7.00;99.90;;;;;;5065340;28;19943;-70
2022/10/05 03:12:06;;;;;;;;;;;7.00;99.90;;;;;;5065602;28;19927;-71
2022/10/05 03:14:35;;;;;;;;;;;7.00;99.90;;;;;;5064947;28;19927;-69
2022/10/05 03:17:06;;;;;;;;;;;7.00;99.90;;;;;;5065508;28;19920;-70
2022/10/05 03:19:44;;;;;;;;;;;7.00;99.90;;;;;;5064981;28;19927;-69
2022/10/05 03:22:15;;;;;;;;;;;7.00;99.90;;;;;;5079657;22;19960;-70
2022/10/05 03:24:48;;;;;;;;;;;6.90;99.90;;;;;;5064779;28;19920;-70
2022/10/05 03:27:23;;;;;;;;;;;6.90;99.90;;;;;;5065152;28;19921;-70
2022/10/05 03:29:56;;;;;;;;;;;6.90;99.90;;;;;;5064928;28;20200;-70
2022/10/05 03:32:25;;;;;;;;;;;6.90;99.90;;;;;;5064702;28;19921;-70
2022/10/05 03:34:57;;;;;;;;;;;6.90;99.90;;;;;;5064741;28;19975;-70
2022/10/05 03:37:27;;;;;;;;;;;6.90;99.90;;;;;;5064754;28;19920;-70
2022/10/05 03:39:57;;;;;;;;;;;6.90;99.90;;;;;;5065000;28;19920;-70
2022/10/05 03:42:26;;;;;;;;;;;6.80;99.90;;;;;;5062471;28;19921;-70
2022/10/05 03:44:56;;;;;;;;;;;6.80;99.90;;;;;;5056841;28;20200;-70
2022/10/05 03:47:28;;;;;;;;;;;6.70;99.90;;;;;;5064944;28;19921;-70
2022/10/05 03:50:19;;;;;;;;;;;6.70;99.90;;;;;;5064688;28;20224;-70
2022/10/05 03:52:48;;;;;;;;;;;6.70;99.90;;;;;;5054157;28;19988;-70
2022/10/05 03:55:19;;;;;;;;;;;6.70;99.90;;;;;;5063700;28;19935;-70
2022/10/05 03:57:47;;;;;;;;;;;6.70;99.90;;;;;;5064252;28;19942;-70
2022/10/05 04:00:15;;;;;;;;;;;6.70;99.90;;;;;;5064656;28;19927;-70
2022/10/05 04:02:45;;;;;;;;;;;6.70;99.90;;;;;;5059752;28;20015;-70
2022/10/05 04:05:14;;;;;;;;;;;6.60;99.90;;;;;;5055656;28;19927;-70
2022/10/05 04:07:43;;;;;;;;;;;6.60;99.90;;;;;;5063885;28;20039;-69
2022/10/05 04:10:16;;;;;;;;;;;6.60;99.90;;;;;;5064643;28;20155;-70
2022/10/05 04:12:45;;;;;;;;;;;6.60;99.90;;;;;;5063578;28;19951;-70
2022/10/05 04:15:16;;;;;;;;;;;6.60;99.90;;;;;;5063747;28;20126;-70
2022/10/05 04:17:44;;;;;;;;;;;6.60;99.90;;;;;;5063356;28;19987;-70
2022/10/05 04:20:16;;;;;;;;;;;6.50;99.90;;;;;;5063761;28;19935;-70
2022/10/05 04:22:46;;;;;;;;;;;6.50;99.90;;;;;;5063920;28;19927;-69
2022/10/05 04:25:16;;;;;;;;;;;6.50;99.90;;;;;;5064069;28;20089;-70
2022/10/05 04:27:45;;;;;;;;;;;6.40;99.90;;;;;;5063833;28;19921;-70
2022/10/05 04:30:13;;;;;;;;;;;6.40;99.90;;;;;;5063817;28;19921;-69
2022/10/05 04:32:42;;;;;;;;;;;6.30;99.90;;;;;;5063667;28;19921;-70
2022/10/05 04:35:19;;;;;;;;;;;6.30;99.90;;;;;;5063690;28;20168;-70
2022/10/05 04:37:49;;;;;;;;;;;6.30;99.90;;;;;;5060847;28;19922;-70
2022/10/05 04:40:23;;;;;;;;;;;6.30;99.90;;;;;;5057813;28;19921;-70
2022/10/05 04:42:56;;;;;;;;;;;6.30;99.90;;;;;;5060061;28;20242;-70
2022/10/05 04:45:30;;;;;;;;;;;6.30;99.90;;;;;;5064839;28;19992;-70
2022/10/05 04:48:04;;;;;;;;;;;6.30;99.90;;;;;;5063741;28;19921;-70
2022/10/05 04:50:38;;;;;;;;;;;6.30;99.90;;;;;;5063332;28;19928;-72
2022/10/05 04:53:09;;;;;;;;;;;6.30;99.90;;;;;;5063517;28;19925;-70
2022/10/05 04:55:39;;;;;;;;;;;6.40;99.90;;;;;;5071436;28;20172;-70
2022/10/05 04:58:10;;;;;;;;;;;6.40;99.90;;;;;;5083145;28;20266;-70
2022/10/05 05:00:44;;;;;;;;;;;6.30;99.90;;;;;;5067295;28;19983;-70
2022/10/05 05:03:19;;;;;;;;;;;6.40;99.90;;;;;;5063072;28;20200;-70
2022/10/05 05:05:54;;;;;;;;;;;6.30;99.90;;;;;;5054674;28;20191;-72
2022/10/05 05:08:27;;;;;;;;;;;6.30;99.90;;;;;;5061886;28;19991;-69
2022/10/05 05:11:00;;;;;;;;;;;6.20;99.90;;;;;;5063271;28;19952;-70
2022/10/05 05:13:34;;;;;;;;;;;6.20;99.90;;;;;;5063295;28;19921;-71
2022/10/05 05:16:05;;;;;;;;;;;6.20;99.90;;;;;;5063324;28;20283;-73
2022/10/05 05:18:38;;;;;;;;;;;6.20;99.90;;;;;;5063848;28;20004;-69
2022/10/05 05:21:08;;;;;;;;;;;6.20;99.90;;;;;;5063640;28;19921;-70
2022/10/05 05:23:37;;;;;;;;;;;6.30;99.90;;;;;;5062954;28;20073;-70
2022/10/05 05:26:11;;;;;;;;;;;6.20;99.90;;;;;;5061964;28;19966;-70
2022/10/05 05:28:43;;;;;;;;;;;6.20;99.90;;;;;;5060436;28;19984;-70
2022/10/05 05:31:12;;;;;;;;;;;6.20;99.90;;;;;;5063338;28;19927;-70
2022/10/05 05:33:45;;;;;;;;;;;6.20;99.90;;;;;;5063006;28;19925;-70
2022/10/05 05:36:29;;;;;;;;;;;6.20;99.90;;;;;;5063504;28;20172;-69
2022/10/05 05:39:03;;;;;;;;;;;6.20;99.90;;;;;;5063228;28;20211;-70
2022/10/05 05:41:36;;;;;;;;;;;6.20;99.90;;;;;;5063331;28;19927;-70
2022/10/05 05:44:05;;;;;;;;;;;6.20;99.90;;;;;;5062879;28;20166;-70
2022/10/05 05:46:35;;;;;;;;;;;6.20;99.90;;;;;;5063061;28;19995;-70
2022/10/05 05:49:03;;;;;;;;;;;6.20;99.90;;;;;;5063731;28;19927;-70
2022/10/05 05:51:32;;;;;;;;;;;6.20;99.90;;;;;;5046545;28;19928;-70
2022/10/05 05:54:03;;;;;;;;;;;6.20;99.90;;;;;;5043250;28;20311;-69
2022/10/05 05:56:34;;;;;;;;;;;6.20;99.90;;;;;;5043143;28;19984;-69
2022/10/05 05:59:03;;;;;;;;;;;6.20;99.90;;;;;;5043388;28;19927;-70
2022/10/05 06:01:32;;;;;;;;;;;6.20;99.90;;;;;;5043583;28;19921;-70
2022/10/05 06:04:01;;;;;;;;;;;6.10;99.90;;;;;;5060415;28;19992;-70
2022/10/05 06:06:31;;;;;;;;;;;6.10;99.90;;;;;;5063030;28;19928;-72
2022/10/05 06:08:59;;;;;;;;;;;6.20;99.90;;;;;;5063123;28;20104;-70
2022/10/05 06:11:28;;;;;;;;;;;6.20;99.90;;;;;;5062970;28;20208;-71
2022/10/05 06:13:58;;;;;;;;;;;6.20;99.90;;;;;;5063146;28;19927;-70
2022/10/05 06:16:27;;;;;;;;;;;6.20;99.90;;;;;;5062814;28;19992;-68
2022/10/05 06:18:56;;;;;;;;;;;6.20;99.90;;;;;;5064473;28;20111;-73
2022/10/05 06:21:26;;;;;;;;;;;6.20;99.90;;;;;;5066873;28;19962;-71
2022/10/05 06:23:56;;;;;;;;;;;6.20;99.90;;;;;;5066204;28;19927;-70
2022/10/05 06:26:32;;;;;;;;;;;6.30;99.90;;;;;;5066418;28;19992;-71
2022/10/05 06:29:01;;;;;;;;;;;6.30;99.90;;;;;;5066773;28;19921;-70
2022/10/05 06:31:35;;;;;;;;;;;6.30;99.90;;;;;;5066551;28;19963;-72
2022/10/05 06:34:07;;;;;;;;;;;6.40;99.90;;;;;;5066322;28;19959;-72
2022/10/05 06:36:38;;;;;;;;;;;6.40;99.90;;;;;;5065947;28;19920;-70
2022/10/05 06:39:13;;;;;;;;;;;6.40;99.90;;;;;;5066589;28;19925;-72
2022/10/05 06:41:45;;;;;;;;;;;6.40;99.90;;;;;;5064626;28;19927;-72
2022/10/05 06:44:15;;;;;;;;;;;6.40;99.90;;;;;;5060105;28;19983;-72
2022/10/05 06:46:47;;;;;;;;;;;6.50;99.90;;;;;;5065849;28;19921;-72
2022/10/05 06:49:17;;;;;;;;;;;6.50;99.90;;;;;;5065511;28;19920;-72
2022/10/05 06:51:49;;;;;;;;;;;6.60;99.90;;;;;;5065737;28;20152;-72
2022/10/05 06:54:22;;;;;;;;;;;6.60;99.90;;;;;;5065520;28;19920;-72
2022/10/05 06:56:52;;;;;;;;;;;6.60;99.90;;;;;;5065788;28;19980;-73
2022/10/05 06:59:23;;;;;;;;;;;6.70;99.90;;;;;;5065770;28;19928;-70
2022/10/05 07:01:53;;;;;;;;;;;6.70;99.90;;;;;;5065402;28;19987;-72
2022/10/05 07:04:24;;;;;;;;;;;6.80;99.90;;;;;;5057123;28;19935;-72
2022/10/05 07:06:52;;;;;;;;;;;6.90;99.90;;;;;;5064257;28;19927;-72
2022/10/05 07:09:30;;;;;;;;;;;6.90;99.90;;;;;;5065727;28;19927;-72
2022/10/05 07:12:00;;;;;;;;;;;7.00;99.90;;;;;;5065147;28;19921;-70
2022/10/05 07:14:33;;;;;;;;;;;7.10;99.90;;;;;;5064590;28;20002;-70
2022/10/05 07:17:05;;;;;;;;;;;7.20;99.90;;;;;;5064892;28;19942;-72
2022/10/05 07:19:36;;;;;;;;;;;7.20;99.90;;;;;;5065406;28;19929;-72
2022/10/05 07:22:19;;;;;;;;;;;7.30;99.90;;;;;;5065514;28;20000;-72
2022/10/05 07:24:49;;;;;;;;;;;7.50;99.90;;;;;;5065043;28;19920;-72
2022/10/05 07:27:17;;;;;;;;;;;7.70;99.90;;;;;;5063500;28;19921;-72
2022/10/05 07:29:50;;;;;;;;;;;7.80;99.90;;;;;;5055918;28;19928;-73
2022/10/05 07:32:26;;;;;;;;;;;7.90;99.90;;;;;;5064890;28;19921;-72
2022/10/05 07:34:59;;;;;;;;;;;8.00;99.90;;;;;;5064955;28;19921;-72
2022/10/05 07:40:19;;;;;;;;;;;8.10;99.90;;;;;;5065087;28;19923;-72
2022/10/05 07:42:55;;;;;;;;;;;8.20;99.90;;;;;;5065152;28;20123;-72
2022/10/05 07:45:26;;;;;;;;;;;8.20;99.90;;;;;;5059534;28;20144;-72
2022/10/05 07:47:54;;;;;;;;;;;8.40;99.90;;;;;;5045211;28;19927;-72
2022/10/05 07:50:23;;;;;;;;;;;8.50;99.90;;;;;;5056489;28;19928;-73
2022/10/05 07:52:54;;;;;;;;;;;8.50;99.90;;;;;;5064896;28;19992;-72
2022/10/05 07:55:22;;;;;;;;;;;8.60;99.90;;;;;;5064536;28;19920;-72
2022/10/05 07:57:53;;;;;;;;;;;8.60;99.90;;;;;;5064658;28;19983;-72
2022/10/05 08:00:21;;;;;;;;;;;8.80;99.90;;;;;;5064562;28;19920;-73
2022/10/05 08:02:49;;;;;;;;;;;8.90;99.90;;;;;;5063846;28;19961;-73
2022/10/05 08:05:20;;;;;;;;;;;8.90;99.90;;;;;;5060909;28;20112;-72
2022/10/05 08:07:49;;;;;;;;;;;9.00;99.90;;;;;;5063994;28;19927;-73
2022/10/05 08:10:26;;;;;;;;;;;9.10;99.90;;;;;;5063823;28;19920;-73
2022/10/05 08:12:57;;;;;;;;;;;9.30;99.90;;;;;;5064353;28;20234;-72
2022/10/05 08:15:27;;;;;;;;;;;9.40;99.90;;;;;;5063943;28;20145;-72
2022/10/05 08:17:59;;;;;;;;;;;9.50;99.90;;;;;;5064276;28;19987;-71
2022/10/05 08:20:35;;;;;;;;;;;9.70;99.90;;;;;;5064085;28;19987;-73
2022/10/05 08:23:04;;;;;;;;;;;9.70;99.90;;;;;;5064375;28;19993;-72
2022/10/05 08:25:38;;;;;;;;;;;9.80;99.90;;;;;;5063517;28;19927;-72
2022/10/05 08:28:09;;;;;;;;;;;9.90;99.90;;;;;;5057301;28;19967;-73
2022/10/05 08:30:48;;;;;;;;;;;10.00;99.90;;;;;;5056387;28;19928;-73
2022/10/05 08:33:17;;;;;;;;;;;10.10;99.90;;;;;;5043273;28;19927;-72
2022/10/05 08:35:44;;;;;;;;;;;10.30;99.90;;;;;;5051056;28;19927;-72
2022/10/05 08:38:13;;;;;;;;;;;10.50;99.90;;;;;;5063735;28;19983;-72
2022/10/05 08:41:03;;;;;;;;;;;10.60;99.90;;;;;;5060832;28;19924;-72
2022/10/05 08:43:37;;;;;;;;;;;10.70;99.90;;;;;;5042891;28;19975;-72
2022/10/05 08:46:19;;;;;;;;;;;10.90;99.90;;;;;;5043745;28;20023;-72
2022/10/05 08:48:55;;;;;;;;;;;10.90;99.90;;;;;;5045652;28;19984;-73
2022/10/05 08:51:32;;;;;;;;;;;11.00;99.90;;;;;;5063531;28;19920;-72
2022/10/05 08:54:11;;;;;;;;;;;11.20;99.90;;;;;;5063173;28;19928;-72
2022/10/05 08:56:41;;;;;;;;;;;11.30;99.90;;;;;;5062908;28;20263;-72
2022/10/05 08:59:17;;;;;;;;;;;11.30;99.90;;;;;;5063345;28;19920;-72
2022/10/05 09:01:52;;;;;;;;;;;11.50;99.90;;;;;;5063445;28;19921;-72
2022/10/05 09:04:30;;;;;;;;;;;11.50;99.90;;;;;;5052228;28;20062;-73
2022/10/05 09:07:02;;;;;;;;;;;11.60;99.90;;;;;;5059392;28;20200;-73
2022/10/05 09:09:49;;;;;;;;;;;11.80;99.90;;;;;;5063058;28;20102;-73
2022/10/05 09:12:38;;;;;;;;;;;11.90;99.90;;;;;;5063100;28;19935;-73
2022/10/05 09:15:15;;;;;;;;;;;12.10;99.90;;;;;;5062962;28;19920;-73
2022/10/05 09:18:06;;;;;;;;;;;12.20;99.90;;;;;;5063137;28;19947;-73
2022/10/05 09:20:41;;;;;;;;;;;12.40;99.90;;;;;;5063326;28;19943;-73
2022/10/05 09:23:12;;;;;;;;;;;12.50;99.90;;;;;;5083325;22;20215;-72
2022/10/05 09:25:45;;;;;;;;;;;12.70;99.90;;;;;;5096247;28;20092;-72
2022/10/05 09:28:22;;;;;;;;;;;12.80;99.90;;;;;;5083395;28;19943;-72
2022/10/05 09:30:56;;;;;;;;;;;13.00;99.90;;;;;;5092500;28;19926;-72
2022/10/05 09:33:38;;;;;;;;;;;13.10;99.90;;;;;;5077078;28;19927;-72
2022/10/05 09:36:30;;;;;;;;;;;13.30;99.90;;;;;;5059520;28;19920;-72
2022/10/05 09:39:12;;;;;;;;;;;13.50;99.90;;;;;;5062863;28;19973;-72
2022/10/05 09:41:57;;;;;;;;;;;13.60;99.90;;;;;;5046269;28;19924;-72
2022/10/05 09:44:36;;;;;;;;;;;13.80;99.90;;;;;;5045253;28;19920;-71
2022/10/05 09:47:08;;;;;;;;;;;13.90;99.90;;;;;;5065993;28;19928;-72
2022/10/05 09:49:45;;;;;;;;;;;14.10;99.90;;;;;;5063179;28;19984;-72
2022/10/05 09:52:21;;;;;;;;;;;14.20;99.90;;;;;;5062486;28;20139;-72
2022/10/05 09:55:05;;;;;;;;;;;14.30;99.90;;;;;;5064335;28;19939;-72
2022/10/05 09:57:50;;;;;;;;;;;14.40;99.90;;;;;;5068809;28;19952;-72
2022/10/05 10:00:25;;;;;;;;;;;14.50;99.90;;;;;;5066735;28;19920;-71
2022/10/05 10:03:10;;;;;;;;;;;14.60;99.90;;;;;;5066238;28;20123;-72
2022/10/05 10:05:52;;;;;;;;;;;14.70;99.90;;;;;;5081772;28;19920;-72
2022/10/05 10:08:29;;;;;;;;;;;14.90;99.90;;;;;;5062924;28;19927;-70
2022/10/05 10:11:11;;;;;;;;;;;15.00;99.90;;;;;;5066975;28;20130;-72
2022/10/05 10:13:50;;;;;;;;;;;15.10;99.90;;;;;;5081132;28;20211;-72
2022/10/05 10:16:23;;;;;;;;;;;15.20;99.90;;;;;;5086170;28;19948;-71
2022/10/05 10:19:07;;;;;;;;;;;15.20;99.90;;;;;;5086345;28;19920;-72
2022/10/05 10:21:54;;;;;;;;;;;15.30;99.90;;;;;;5085955;28;19927;-72
2022/10/05 10:24:29;;;;;;;;;;;15.40;99.90;;;;;;5086343;28;19920;-72
2022/10/05 10:27:11;;;;;;;;;;;15.40;99.90;;;;;;5086318;28;19920;-71
2022/10/05 10:29:50;;;;;;;;;;;15.50;99.90;;;;;;5086724;28;20168;-71
2022/10/05 10:32:30;;;;;;;;;;;15.60;99.90;;;;;;5086660;28;19988;-71
2022/10/05 10:35:17;;;;;;;;;;;15.70;99.90;;;;;;5085910;28;19948;-71
2022/10/05 10:37:59;;;;;;;;;;;15.80;99.90;;;;;;5085838;28;20188;-70
2022/10/05 10:40:29;;;;;;;;;;;15.90;99.90;;;;;;5059440;28;19921;-69
2022/10/05 10:43:21;;;;;;;;;;;16.10;99.90;;;;;;5046415;28;20176;-71
2022/10/05 10:45:53;;;;;;;;;;;16.20;99.90;;;;;;5046152;28;19921;-71
2022/10/05 10:48:37;;;;;;;;;;;16.30;99.90;;;;;;5046089;28;19921;-70
2022/10/05 10:51:12;;;;;;;;;;;16.40;99.90;;;;;;5046384;28;19927;-70
2022/10/05 10:54:02;;;;;;;;;;;16.60;99.90;;;;;;5055774;28;20143;-71
2022/10/05 10:56:40;;;;;;;;;;;16.70;99.90;;;;;;5064254;28;19966;-71
2022/10/05 10:59:33;;;;;;;;;;;16.80;99.90;;;;;;5061854;28;20224;-72
2022/10/05 11:02:14;;;;;;;;;;;16.90;99.90;;;;;;5075220;28;19920;-71
2022/10/05 11:04:52;;;;;;;;;;;17.10;99.90;;;;;;5073987;28;19920;-71
2022/10/05 11:07:34;;;;;;;;;;;17.20;99.90;;;;;;5061249;28;19925;-71
2022/10/05 11:10:11;;;;;;;;;;;17.30;99.90;;;;;;5061659;28;19927;-71
2022/10/05 11:12:56;;;;;;;;;;;17.50;99.90;;;;;;5064829;28;19948;-71
2022/10/05 11:15:41;;;;;;;;;;;17.60;99.90;;;;;;5067714;28;19933;-71
2022/10/05 11:18:18;;;;;;;;;;;17.70;99.90;;;;;;5070631;28;19920;-71
2022/10/05 11:21:03;;;;;;;;;;;17.80;99.90;;;;;;5084993;28;19987;-72
2022/10/05 11:23:58;;;;;;;;;;;17.90;99.90;;;;;;5081738;28;19921;-71
2022/10/05 11:26:32;;;;;;;;;;;18.00;99.90;;;;;;5057070;28;19921;-72
2022/10/05 11:29:17;;;;;;;;;;;18.20;99.90;;;;;;5045437;28;19975;-72
2022/10/05 11:31:58;;;;;;;;;;;18.40;99.90;;;;;;5045150;28;20196;-71
2022/10/05 11:34:41;;;;;;;;;;;18.50;99.90;;;;;;5080268;28;19983;-70
2022/10/05 11:37:25;;;;;;;;;;;18.60;99.90;;;;;;5068225;28;20180;-72
2022/10/05 11:39:59;;;;;;;;;;;18.70;99.90;;;;;;5064765;28;19939;-72
2022/10/05 11:42:39;;;;;;;;;;;18.80;99.90;;;;;;5061138;28;19921;-71
2022/10/05 11:45:15;;;;;;;;;;;18.80;99.90;;;;;;5044674;28;20115;-72
2022/10/05 11:47:48;;;;;;;;;;;19.00;99.90;;;;;;5044875;28;19960;-71
2022/10/05 11:50:19;;;;;;;;;;;19.10;99.90;;;;;;5066242;28;19928;-72
2022/10/05 11:52:47;;;;;;;;;;;19.30;99.90;;;;;;5064965;28;19927;-71
2022/10/05 11:55:18;;;;;;;;;;;19.40;99.90;;;;;;5064436;28;19928;-72
2022/10/05 11:57:53;;;;;;;;;;;19.40;99.90;;;;;;5079776;28;19926;-72
2022/10/05 12:00:20;;;;;;;;;;;19.50;99.90;;;;;;5084501;28;19999;-72
2022/10/05 12:02:52;;;;;;;;;;;19.60;99.90;;;;;;5068033;28;19921;-71
2022/10/05 12:05:23;;;;;;;;;;;19.70;99.90;;;;;;5072225;28;19921;-72
2022/10/05 12:08:02;;;;;;;;;;;19.70;99.90;;;;;;5064185;28;20119;-71
2022/10/05 12:10:32;;;;;;;;;;;19.70;99.90;;;;;;5056107;28;19931;-72
2022/10/05 12:13:07;;;;;;;;;;;19.80;99.90;;;;;;5064044;28;19990;-71
2022/10/05 12:15:37;;;;;;;;;;;19.90;99.90;;;;;;5063719;28;19929;-72
2022/10/05 12:18:07;;;;;;;;;;;19.90;99.90;;;;;;5074858;28;20348;-71
2022/10/05 12:20:39;;;;;;;;;;;20.00;99.90;;;;;;5064278;28;19933;-72
2022/10/05 12:23:06;;;;;;;;;;;20.00;99.90;;;;;;5064151;28;19920;-71
2022/10/05 12:25:36;;;;;;;;;;;20.00;99.90;;;;;;5063783;28;19927;-71
2022/10/05 12:28:04;;;;;;;;;;;20.10;99.90;;;;;;5063977;28;19927;-71
2022/10/05 12:30:48;;;;;;;;;;;20.10;99.90;;;;;;5073718;28;19928;-72
2022/10/05 12:33:18;;;;;;;;;;;20.10;99.90;;;;;;5073242;28;19967;-72
2022/10/05 12:35:49;;;;;;;;;;;20.10;99.90;;;;;;5063591;28;19971;-72
2022/10/05 12:38:19;;;;;;;;;;;20.20;99.90;;;;;;5064059;28;19920;-72
2022/10/05 12:40:50;;;;;;;;;;;20.20;99.90;;;;;;5064090;28;19927;-72
2022/10/05 12:43:21;;;;;;;;;;;20.30;99.90;;;;;;5063538;28;19988;-72
2022/10/05 12:45:54;;;;;;;;;;;20.30;99.90;;;;;;5077077;28;19920;-72
2022/10/05 12:48:31;;;;;;;;;;;20.40;99.90;;;;;;5072013;28;19920;-71
2022/10/05 12:51:01;;;;;;;;;;;20.50;99.90;;;;;;5083866;28;19920;-71
2022/10/05 12:53:34;;;;;;;;;;;20.60;99.90;;;;;;5084194;28;19995;-71
2022/10/05 12:56:03;;;;;;;;;;;20.70;99.90;;;;;;5072095;28;19927;-72
2022/10/05 12:58:35;;;;;;;;;;;20.60;99.90;;;;;;5063510;28;19921;-71
2022/10/05 13:01:05;;;;;;;;;;;20.50;99.90;;;;;;5064702;28;20186;-71
2022/10/05 13:03:36;;;;;;;;;;;20.50;99.90;;;;;;5065935;28;20200;-72
2022/10/05 13:06:08;;;;;;;;;;;20.60;99.90;;;;;;5063066;28;19980;-72
2022/10/05 13:08:37;;;;;;;;;;;20.60;99.90;;;;;;5080058;28;19920;-72
2022/10/05 13:11:07;;;;;;;;;;;20.70;99.90;;;;;;5063295;28;19927;-71
2022/10/05 13:13:37;;;;;;;;;;;20.80;99.90;;;;;;5063318;28;19929;-71
2022/10/05 13:16:09;;;;;;;;;;;20.90;99.90;;;;;;5075770;28;20218;-71
2022/10/05 13:18:43;;;;;;;;;;;21.00;99.90;;;;;;5043292;28;19921;-74
2022/10/05 13:21:13;;;;;;;;;;;21.20;99.90;;;;;;5049721;28;20265;-69
2022/10/05 13:23:45;;;;;;;;;;;21.20;99.90;;;;;;5061796;28;20398;-69
2022/10/05 13:26:13;;;;;;;;;;;21.20;99.90;;;;;;5062597;28;20115;-69
2022/10/05 13:28:42;;;;;;;;;;;21.30;99.90;;;;;;5062393;28;19921;-69
2022/10/05 13:31:12;;;;;;;;;;;21.30;99.90;;;;;;5063465;28;19921;-70
2022/10/05 13:33:48;;;;;;;;;;;21.30;99.90;;;;;;5077471;28;19920;-69
2022/10/05 13:36:17;;;;;;;;;;;21.30;99.90;;;;;;5083087;28;20206;-70
2022/10/05 13:38:51;;;;;;;;;;;21.30;99.90;;;;;;5069478;28;19921;-71
2022/10/05 13:41:20;;;;;;;;;;;21.30;99.90;;;;;;5063408;28;19952;-71
2022/10/05 13:43:51;;;;;;;;;;;21.40;99.90;;;;;;5063155;28;19921;-69
2022/10/05 13:46:22;;;;;;;;;;;21.40;99.90;;;;;;5063161;28;19921;-71
2022/10/05 13:48:53;;;;;;;;;;;21.40;99.90;;;;;;5063004;28;19984;-70
2022/10/05 13:51:23;;;;;;;;;;;21.30;99.90;;;;;;5063328;28;19979;-72
2022/10/05 13:53:55;;;;;;;;;;;21.20;99.90;;;;;;5062827;28;19921;-72
2022/10/05 13:56:25;;;;;;;;;;;21.20;99.90;;;;;;5063018;28;19921;-72
2022/10/05 13:58:58;;;;;;;;;;;21.20;99.90;;;;;;5063237;28;19927;-71
2022/10/05 14:01:28;;;;;;;;;;;21.10;99.90;;;;;;5063074;28;19959;-71
2022/10/05 14:04:15;;;;;;;;;;;21.10;99.90;;;;;;5063178;28;19947;-71
2022/10/05 14:06:44;;;;;;;;;;;21.20;99.90;;;;;;5062607;28;20152;-71
2022/10/05 14:09:12;;;;;;;;;;;21.20;99.90;;;;;;5063139;28;19928;-71
2022/10/05 14:11:47;;;;;;;;;;;21.20;99.90;;;;;;5060999;28;19920;-69
2022/10/05 14:14:15;;;;;;;;;;;21.10;99.90;;;;;;5063046;28;19988;-69
2022/10/05 14:16:49;;;;;;;;;;;21.10;99.90;;;;;;5062591;28;19920;-70
2022/10/05 14:19:20;;;;;;;;;;;21.20;99.90;;;;;;5062858;28;19928;-69
2022/10/05 14:21:52;;;;;;;;;;;21.20;99.90;;;;;;5062409;28;19924;-70
2022/10/05 14:24:20;;;;;;;;;;;21.20;99.90;;;;;;5062571;28;19921;-72
2022/10/05 14:26:50;;;;;;;;;;;21.20;99.90;;;;;;5062695;28;19935;-69
2022/10/05 14:29:18;;;;;;;;;;;21.20;99.90;;;;;;5062996;28;19921;-71
2022/10/05 14:31:51;;;;;;;;;;;21.10;99.90;;;;;;5062971;28;19982;-71
2022/10/05 14:34:29;;;;;;;;;;;21.20;99.90;;;;;;5062012;28;19921;-71
2022/10/05 14:36:58;;;;;;;;;;;21.10;99.90;;;;;;5069607;28;20143;-71
2022/10/05 14:39:26;;;;;;;;;;;21.10;99.90;;;;;;5063174;28;19927;-70
2022/10/05 14:41:52;;;;;;;;;;;21.00;99.90;;;;;;5066390;28;19921;-70
2022/10/05 14:44:26;;;;;;;;;;;21.00;99.90;;;;;;5068373;28;19985;-71
2022/10/05 14:46:54;;;;;;;;;;;21.10;99.90;;;;;;5077849;28;19920;-70
2022/10/05 14:49:24;;;;;;;;;;;21.10;99.90;;;;;;5086074;28;20004;-70
2022/10/05 14:51:52;;;;;;;;;;;21.00;99.90;;;;;;5086415;28;19920;-71
2022/10/05 14:54:24;;;;;;;;;;;21.00;99.90;;;;;;5085988;28;20143;-72
2022/10/05 14:56:55;;;;;;;;;;;20.90;99.90;;;;;;5085940;28;19984;-71
2022/10/05 14:59:29;;;;;;;;;;;20.80;99.90;;;;;;5079213;28;19920;-72